sensor_id;sensor_type;location;lat;lon;timestamp;temperature;humidity
1878;DHT22;939;51.426;6.972;2023-01-16T00:01:23;6.50;99.90
1878;DHT22;939;51.426;6.972;2023-01-16T00:03:51;6.70;99.90
1878;DHT22;939;51.426;6.972;2023-01-16T00:09:03;6.50;99.90
1878;DHT22;939;51.426;6.972;2023-01-16T00:11:30;6.50;99.90
1878;DHT22;939;51.426;6.972;2023-01-16T00:13:59;6.60;99.90
1878;DHT22;939;51.426;6.972;2023-01-16T00:16:26;6.50;99.90
1878;DHT22;939;51.426;6.972;2023-01-16T00:18:58;6.60;99.90
1878;DHT22;939;51.426;6.972;2023-01-16T00:21:38;6.60;99.90
1878;DHT22;939;51.426;6.972;2023-01-16T00:24:06;6.70;99.90
1878;DHT22;939;51.426;6.972;2023-01-16T00:26:36;6.70;99.90
1878;DHT22;939;51.426;6.972;2023-01-16T00:29:10;6.70;99.90
1878;DHT22;939;51.426;6.972;2023-01-16T00:31:38;6.70;99.90
1878;DHT22;939;51.426;6.972;2023-01-16T00:34:22;6.70;99.90
1878;DHT22;939;51.426;6.972;2023-01-16T00:36:54;6.60;99.90
1878;DHT22;939;51.426;6.972;2023-01-16T00:39:24;6.60;99.90
1878;DHT22;939;51.426;6.972;2023-01-16T00:41:51;6.60;99.90
1878;DHT22;939;51.426;6.972;2023-01-16T00:44:19;6.70;99.90
1878;DHT22;939;51.426;6.972;2023-01-16T00:46:46;6.60;99.90
1878;DHT22;939;51.426;6.972;2023-01-16T00:49:15;6.60;99.90
1878;DHT22;939;51.426;6.972;2023-01-16T00:51:42;6.70;99.90
1878;DHT22;939;51.426;6.972;2023-01-16T00:54:08;6.60;99.90
1878;DHT22;939;51.426;6.972;2023-01-16T00:56:35;6.50;99.90
1878;DHT22;939;51.426;6.972;2023-01-16T00:59:02;6.50;99.90
1878;DHT22;939;51.426;6.972;2023-01-16T01:01:30;6.50;99.90
1878;DHT22;939;51.426;6.972;2023-01-16T01:03:58;6.60;99.90
1878;DHT22;939;51.426;6.972;2023-01-16T01:06:25;6.60;99.90
1878;DHT22;939;51.426;6.972;2023-01-16T01:08:52;6.60;99.90
1878;DHT22;939;51.426;6.972;2023-01-16T01:11:19;6.60;99.90
1878;DHT22;939;51.426;6.972;2023-01-16T01:13:46;6.60;99.90
1878;DHT22;939;51.426;6.972;2023-01-16T01:16:14;6.60;99.90
1878;DHT22;939;51.426;6.972;2023-01-16T01:18:42;6.60;99.90
1878;DHT22;939;51.426;6.972;2023-01-16T01:21:13;6.60;99.90
1878;DHT22;939;51.426;6.972;2023-01-16T01:23:40;6.60;99.90
1878;DHT22;939;51.426;6.972;2023-01-16T01:26:08;6.50;99.90
1878;DHT22;939;51.426;6.972;2023-01-16T01:28:36;6.50;99.90
1878;DHT22;939;51.426;6.972;2023-01-16T01:31:03;6.40;99.90
1878;DHT22;939;51.426;6.972;2023-01-16T01:33:30;6.30;99.90
1878;DHT22;939;51.426;6.972;2023-01-16T01:35:59;6.40;99.90
1878;DHT22;939;51.426;6.972;2023-01-16T01:38:26;6.50;99.90
1878;DHT22;939;51.426;6.972;2023-01-16T01:40:53;6.40;99.90
1878;DHT22;939;51.426;6.972;2023-01-16T01:43:20;6.40;99.90
1878;DHT22;939;51.426;6.972;2023-01-16T01:45:50;6.40;99.90
1878;DHT22;939;51.426;6.972;2023-01-16T01:48:23;6.40;99.90
1878;DHT22;939;51.426;6.972;2023-01-16T01:50:55;6.20;99.90
1878;DHT22;939;51.426;6.972;2023-01-16T01:53:29;6.30;99.90
1878;DHT22;939;51.426;6.972;2023-01-16T01:55:59;6.40;99.90
1878;DHT22;939;51.426;6.972;2023-01-16T01:58:27;6.30;99.90
1878;DHT22;939;51.426;6.972;2023-01-16T02:00:57;6.40;99.90
1878;DHT22;939;51.426;6.972;2023-01-16T02:03:29;6.40;99.90
1878;DHT22;939;51.426;6.972;2023-01-16T02:06:00;6.40;99.90
1878;DHT22;939;51.426;6.972;2023-01-16T02:08:31;6.50;99.90
1878;DHT22;939;51.426;6.972;2023-01-16T02:11:03;6.40;99.90
1878;DHT22;939;51.426;6.972;2023-01-16T02:13:31;6.40;99.90
1878;DHT22;939;51.426;6.972;2023-01-16T02:15:58;6.40;99.90
1878;DHT22;939;51.426;6.972;2023-01-16T02:18:43;6.40;99.90
1878;DHT22;939;51.426;6.972;2023-01-16T02:21:48;6.40;99.90
1878;DHT22;939;51.426;6.972;2023-01-16T02:24:48;6.40;99.90
1878;DHT22;939;51.426;6.972;2023-01-16T02:27:44;6.40;99.90
1878;DHT22;939;51.426;6.972;2023-01-16T02:30:28;6.50;99.90
1878;DHT22;939;51.426;6.972;2023-01-16T02:33:04;6.60;99.90
1878;DHT22;939;51.426;6.972;2023-01-16T02:35:58;6.50;99.90
1878;DHT22;939;51.426;6.972;2023-01-16T02:38:34;6.40;99.90
1878;DHT22;939;51.426;6.972;2023-01-16T02:41:13;6.40;99.90
1878;DHT22;939;51.426;6.972;2023-01-16T02:43:48;6.40;99.90
1878;DHT22;939;51.426;6.972;2023-01-16T02:46:24;6.40;99.90
1878;DHT22;939;51.426;6.972;2023-01-16T02:49:00;6.50;99.90
1878;DHT22;939;51.426;6.972;2023-01-16T02:51:36;6.60;99.90
1878;DHT22;939;51.426;6.972;2023-01-16T02:54:08;6.70;99.90
1878;DHT22;939;51.426;6.972;2023-01-16T02:56:41;6.60;99.90
1878;DHT22;939;51.426;6.972;2023-01-16T02:59:13;6.40;99.90
1878;DHT22;939;51.426;6.972;2023-01-16T03:01:40;6.40;99.90
1878;DHT22;939;51.426;6.972;2023-01-16T03:04:38;6.20;99.90
1878;DHT22;939;51.426;6.972;2023-01-16T03:07:16;6.20;99.90
1878;DHT22;939;51.426;6.972;2023-01-16T03:09:56;6.20;99.90
1878;DHT22;939;51.426;6.972;2023-01-16T03:12:32;6.20;99.90
1878;DHT22;939;51.426;6.972;2023-01-16T03:15:04;6.30;99.90
1878;DHT22;939;51.426;6.972;2023-01-16T03:17:40;6.30;99.90
1878;DHT22;939;51.426;6.972;2023-01-16T03:20:23;6.30;99.90
1878;DHT22;939;51.426;6.972;2023-01-16T03:22:55;6.30;99.90
1878;DHT22;939;51.426;6.972;2023-01-16T03:25:31;6.30;99.90
1878;DHT22;939;51.426;6.972;2023-01-16T03:28:16;6.20;99.90
1878;DHT22;939;51.426;6.972;2023-01-16T03:30:51;6.10;99.90
1878;DHT22;939;51.426;6.972;2023-01-16T03:33:26;6.00;99.90
1878;DHT22;939;51.426;6.972;2023-01-16T03:36:01;6.10;99.90
1878;DHT22;939;51.426;6.972;2023-01-16T03:38:31;6.00;99.90
1878;DHT22;939;51.426;6.972;2023-01-16T03:41:01;6.00;99.90
1878;DHT22;939;51.426;6.972;2023-01-16T03:43:32;6.00;99.90
1878;DHT22;939;51.426;6.972;2023-01-16T03:46:04;6.10;99.90
1878;DHT22;939;51.426;6.972;2023-01-16T03:48:37;6.00;99.90
1878;DHT22;939;51.426;6.972;2023-01-16T03:51:13;5.90;99.90
1878;DHT22;939;51.426;6.972;2023-01-16T03:53:44;5.80;99.90
1878;DHT22;939;51.426;6.972;2023-01-16T03:56:15;5.80;99.90
1878;DHT22;939;51.426;6.972;2023-01-16T03:58:46;5.80;99.90
1878;DHT22;939;51.426;6.972;2023-01-16T04:01:21;5.80;99.90
1878;DHT22;939;51.426;6.972;2023-01-16T04:03:56;5.90;99.90
1878;DHT22;939;51.426;6.972;2023-01-16T04:06:32;5.80;99.90
1878;DHT22;939;51.426;6.972;2023-01-16T04:09:02;5.80;99.90
1878;DHT22;939;51.426;6.972;2023-01-16T04:11:31;5.80;99.90
1878;DHT22;939;51.426;6.972;2023-01-16T04:14:01;5.70;99.90
1878;DHT22;939;51.426;6.972;2023-01-16T04:16:30;5.70;99.90
1878;DHT22;939;51.426;6.972;2023-01-16T04:18:57;5.80;99.90
1878;DHT22;939;51.426;6.972;2023-01-16T04:21:28;5.80;99.90
1878;DHT22;939;51.426;6.972;2023-01-16T04:23:57;5.90;99.90
1878;DHT22;939;51.426;6.972;2023-01-16T04:26:26;5.80;99.90
1878;DHT22;939;51.426;6.972;2023-01-16T04:28:53;5.80;99.90
1878;DHT22;939;51.426;6.972;2023-01-16T04:31:22;5.80;99.90
1878;DHT22;939;51.426;6.972;2023-01-16T04:33:49;5.70;99.90
1878;DHT22;939;51.426;6.972;2023-01-16T04:36:16;5.70;99.90
1878;DHT22;939;51.426;6.972;2023-01-16T04:38:44;5.70;99.90
1878;DHT22;939;51.426;6.972;2023-01-16T04:41:11;5.80;99.90
1878;DHT22;939;51.426;6.972;2023-01-16T04:43:58;5.70;99.90
1878;DHT22;939;51.426;6.972;2023-01-16T04:46:25;5.70;99.90
1878;DHT22;939;51.426;6.972;2023-01-16T04:48:52;5.70;99.90
1878;DHT22;939;51.426;6.972;2023-01-16T04:51:19;5.60;99.90
1878;DHT22;939;51.426;6.972;2023-01-16T04:53:47;5.50;99.90
1878;DHT22;939;51.426;6.972;2023-01-16T04:56:14;5.50;99.90
1878;DHT22;939;51.426;6.972;2023-01-16T04:58:41;5.50;99.90
1878;DHT22;939;51.426;6.972;2023-01-16T05:01:08;5.50;99.90
1878;DHT22;939;51.426;6.972;2023-01-16T05:03:35;5.50;99.90
1878;DHT22;939;51.426;6.972;2023-01-16T05:06:04;5.50;99.90
1878;DHT22;939;51.426;6.972;2023-01-16T05:08:31;5.50;99.90
1878;DHT22;939;51.426;6.972;2023-01-16T05:10:59;5.50;99.90
1878;DHT22;939;51.426;6.972;2023-01-16T05:13:27;5.50;99.90
1878;DHT22;939;51.426;6.972;2023-01-16T05:15:54;5.50;99.90
1878;DHT22;939;51.426;6.972;2023-01-16T05:18:21;5.50;99.90
1878;DHT22;939;51.426;6.972;2023-01-16T05:20:48;5.50;99.90
1878;DHT22;939;51.426;6.972;2023-01-16T05:23:15;5.40;99.90
1878;DHT22;939;51.426;6.972;2023-01-16T05:25:42;5.50;99.90
1878;DHT22;939;51.426;6.972;2023-01-16T05:28:15;5.40;99.90
1878;DHT22;939;51.426;6.972;2023-01-16T05:30:42;5.40;99.90
1878;DHT22;939;51.426;6.972;2023-01-16T05:33:09;5.50;99.90
1878;DHT22;939;51.426;6.972;2023-01-16T05:35:36;5.50;99.90
1878;DHT22;939;51.426;6.972;2023-01-16T05:38:02;5.50;99.90
1878;DHT22;939;51.426;6.972;2023-01-16T05:40:30;5.50;99.90
1878;DHT22;939;51.426;6.972;2023-01-16T05:42:57;5.50;99.90
1878;DHT22;939;51.426;6.972;2023-01-16T05:45:27;5.60;99.90
1878;DHT22;939;51.426;6.972;2023-01-16T05:47:54;5.60;99.90
1878;DHT22;939;51.426;6.972;2023-01-16T05:50:25;5.60;99.90
1878;DHT22;939;51.426;6.972;2023-01-16T05:52:58;5.60;99.90
1878;DHT22;939;51.426;6.972;2023-01-16T05:55:25;5.60;99.90
1878;DHT22;939;51.426;6.972;2023-01-16T05:57:54;5.60;99.90
1878;DHT22;939;51.426;6.972;2023-01-16T06:00:21;5.60;99.90
1878;DHT22;939;51.426;6.972;2023-01-16T06:02:49;5.60;99.90
1878;DHT22;939;51.426;6.972;2023-01-16T06:05:16;5.70;99.90
1878;DHT22;939;51.426;6.972;2023-01-16T06:07:43;5.70;99.90
1878;DHT22;939;51.426;6.972;2023-01-16T06:10:11;5.70;99.90
1878;DHT22;939;51.426;6.972;2023-01-16T06:12:41;5.70;99.90
1878;DHT22;939;51.426;6.972;2023-01-16T06:15:11;5.70;99.90
1878;DHT22;939;51.426;6.972;2023-01-16T06:17:38;5.70;99.90
1878;DHT22;939;51.426;6.972;2023-01-16T06:20:12;5.70;99.90
1878;DHT22;939;51.426;6.972;2023-01-16T06:22:41;5.70;99.90
1878;DHT22;939;51.426;6.972;2023-01-16T06:25:10;5.80;99.90
1878;DHT22;939;51.426;6.972;2023-01-16T06:27:40;5.80;99.90
1878;DHT22;939;51.426;6.972;2023-01-16T06:30:09;5.80;99.90
1878;DHT22;939;51.426;6.972;2023-01-16T06:32:36;5.70;99.90
1878;DHT22;939;51.426;6.972;2023-01-16T06:35:12;5.70;99.90
1878;DHT22;939;51.426;6.972;2023-01-16T06:37:50;5.80;99.90
1878;DHT22;939;51.426;6.972;2023-01-16T06:40:17;5.80;99.90
1878;DHT22;939;51.426;6.972;2023-01-16T06:42:47;5.80;99.90
1878;DHT22;939;51.426;6.972;2023-01-16T06:45:17;5.90;99.90
1878;DHT22;939;51.426;6.972;2023-01-16T06:47:50;5.90;99.90
1878;DHT22;939;51.426;6.972;2023-01-16T06:50:22;5.90;99.90
1878;DHT22;939;51.426;6.972;2023-01-16T06:52:52;5.90;99.90
1878;DHT22;939;51.426;6.972;2023-01-16T20:47:49;5.60;99.90
1878;DHT22;939;51.426;6.972;2023-01-16T20:50:33;5.60;99.90
1878;DHT22;939;51.426;6.972;2023-01-16T20:53:02;5.50;99.90
1878;DHT22;939;51.426;6.972;2023-01-16T20:55:38;5.40;99.90
1878;DHT22;939;51.426;6.972;2023-01-16T20:58:08;5.30;99.90
1878;DHT22;939;51.426;6.972;2023-01-16T21:00:37;5.40;99.90
1878;DHT22;939;51.426;6.972;2023-01-16T21:03:14;5.30;99.90
1878;DHT22;939;51.426;6.972;2023-01-16T21:05:43;5.30;99.90
1878;DHT22;939;51.426;6.972;2023-01-16T21:08:12;5.30;99.90
1878;DHT22;939;51.426;6.972;2023-01-16T21:10:49;5.20;99.90
1878;DHT22;939;51.426;6.972;2023-01-16T21:13:16;5.30;99.90
1878;DHT22;939;51.426;6.972;2023-01-16T21:16:13;5.30;99.90
1878;DHT22;939;51.426;6.972;2023-01-16T21:19:11;5.40;99.90
1878;DHT22;939;51.426;6.972;2023-01-16T21:21:56;5.20;99.90
1878;DHT22;939;51.426;6.972;2023-01-16T21:24:36;5.20;99.90
1878;DHT22;939;51.426;6.972;2023-01-16T21:27:13;5.10;99.90
1878;DHT22;939;51.426;6.972;2023-01-16T21:29:51;5.20;99.90
1878;DHT22;939;51.426;6.972;2023-01-16T21:32:25;5.20;99.90
1878;DHT22;939;51.426;6.972;2023-01-16T21:34:55;5.20;99.90
1878;DHT22;939;51.426;6.972;2023-01-16T21:37:27;5.20;99.90
1878;DHT22;939;51.426;6.972;2023-01-16T21:39:57;5.20;99.90
1878;DHT22;939;51.426;6.972;2023-01-16T21:42:24;5.20;99.90
1878;DHT22;939;51.426;6.972;2023-01-16T21:45:12;5.20;99.90
1878;DHT22;939;51.426;6.972;2023-01-16T21:47:59;5.20;99.90
1878;DHT22;939;51.426;6.972;2023-01-16T21:50:42;5.20;99.90
1878;DHT22;939;51.426;6.972;2023-01-16T21:53:12;5.20;99.90
1878;DHT22;939;51.426;6.972;2023-01-16T21:55:50;5.20;99.90
1878;DHT22;939;51.426;6.972;2023-01-16T21:58:28;5.20;99.90
1878;DHT22;939;51.426;6.972;2023-01-16T22:01:01;5.20;99.90
1878;DHT22;939;51.426;6.972;2023-01-16T22:03:30;5.20;99.90
1878;DHT22;939;51.426;6.972;2023-01-16T22:06:06;5.20;99.90
1878;DHT22;939;51.426;6.972;2023-01-16T22:08:44;5.20;99.90
1878;DHT22;939;51.426;6.972;2023-01-16T22:11:34;5.30;99.90
1878;DHT22;939;51.426;6.972;2023-01-16T22:14:18;5.40;99.90
1878;DHT22;939;51.426;6.972;2023-01-16T22:17:06;5.40;99.90
1878;DHT22;939;51.426;6.972;2023-01-16T22:19:54;5.40;99.90
1878;DHT22;939;51.426;6.972;2023-01-16T22:22:41;5.50;99.90
1878;DHT22;939;51.426;6.972;2023-01-16T22:25:22;5.40;99.90
1878;DHT22;939;51.426;6.972;2023-01-16T22:27:51;5.40;99.90
1878;DHT22;939;51.426;6.972;2023-01-16T22:30:18;5.40;99.90
1878;DHT22;939;51.426;6.972;2023-01-16T22:32:45;5.30;99.90
1878;DHT22;939;51.426;6.972;2023-01-16T22:35:15;5.30;99.90
1878;DHT22;939;51.426;6.972;2023-01-16T22:37:48;5.20;99.90
1878;DHT22;939;51.426;6.972;2023-01-16T22:40:17;5.30;99.90
1878;DHT22;939;51.426;6.972;2023-01-16T22:42:51;5.20;99.90
1878;DHT22;939;51.426;6.972;2023-01-16T22:45:27;5.30;99.90
1878;DHT22;939;51.426;6.972;2023-01-16T22:48:20;5.30;99.90
1878;DHT22;939;51.426;6.972;2023-01-16T22:50:47;5.30;99.90
1878;DHT22;939;51.426;6.972;2023-01-16T22:53:19;5.40;99.90
1878;DHT22;939;51.426;6.972;2023-01-16T22:55:59;5.40;99.90
1878;DHT22;939;51.426;6.972;2023-01-16T22:58:27;5.40;99.90
1878;DHT22;939;51.426;6.972;2023-01-16T23:01:15;5.40;99.90
1878;DHT22;939;51.426;6.972;2023-01-16T23:07:13;5.40;99.90
1878;DHT22;939;51.426;6.972;2023-01-16T23:09:42;5.50;99.90
1878;DHT22;939;51.426;6.972;2023-01-16T23:12:10;5.50;99.90
1878;DHT22;939;51.426;6.972;2023-01-16T23:14:44;5.40;99.90
1878;DHT22;939;51.426;6.972;2023-01-16T23:17:14;5.40;99.90
1878;DHT22;939;51.426;6.972;2023-01-16T23:19:46;5.40;99.90
1878;DHT22;939;51.426;6.972;2023-01-16T23:22:24;5.30;99.90
1878;DHT22;939;51.426;6.972;2023-01-16T23:25:00;5.40;99.90
1878;DHT22;939;51.426;6.972;2023-01-16T23:27:35;5.40;99.90
1878;DHT22;939;51.426;6.972;2023-01-16T23:32:46;5.30;99.90
1878;DHT22;939;51.426;6.972;2023-01-16T23:35:16;5.30;99.90
1878;DHT22;939;51.426;6.972;2023-01-16T23:37:47;5.30;99.90
1878;DHT22;939;51.426;6.972;2023-01-16T23:40:25;5.30;99.90
1878;DHT22;939;51.426;6.972;2023-01-16T23:42:54;5.30;99.90
1878;DHT22;939;51.426;6.972;2023-01-16T23:45:52;5.30;99.90
1878;DHT22;939;51.426;6.972;2023-01-16T23:48:28;5.20;99.90
1878;DHT22;939;51.426;6.972;2023-01-16T23:51:24;5.10;99.90
1878;DHT22;939;51.426;6.972;2023-01-16T23:54:13;5.20;99.90
1878;DHT22;939;51.426;6.972;2023-01-16T23:56:45;5.20;99.90
1878;DHT22;939;51.426;6.972;2023-01-16T23:59:45;5.10;99.90
